ANZ1984 YMML-YSSY
Flight info
| Callsign | ANZ1984 |
|---|---|
| Flight time | 1h 7m |
| Altitude | FL330 |
| Route | ML DOSEL Y59 RIVET TESAT |
| Aircraft | A388/H-S/N |
Departure
| Time | 2026-05-04 08:04 |
|---|---|
| Airport | Melbourne Airport (YMML) |
Arrival
| Time | 2026-05-04 09:11 |
|---|---|
| Airport | Sydney Kingsford Smith International Airport (YSSY) |
| Time | Latitude | Longitude | Altitude | Speed | Heading |
|---|---|---|---|---|---|
| 2026-05-04 07:17 | -37.66749 | 144.84729 | 451 ft | 0 kts | 248° |
| 2026-05-04 07:43 | -37.66735 | 144.84760 | 450 ft | 7 kts | 234° |
| 2026-05-04 07:44 | -37.66697 | 144.84790 | 450 ft | 7 kts | 197° |
| 2026-05-04 07:44 | -37.66652 | 144.84800 | 450 ft | 7 kts | 192° |
| 2026-05-04 07:44 | -37.66637 | 144.84804 | 450 ft | 0 kts | 192° |
| 2026-05-04 07:49 | -37.66514 | 144.84800 | 450 ft | 7 kts | 170° |
| 2026-05-04 07:49 | -37.66468 | 144.84790 | 450 ft | 7 kts | 170° |
| 2026-05-04 07:49 | -37.66447 | 144.84785 | 450 ft | 0 kts | 170° |
| 2026-05-04 07:50 | -37.66453 | 144.84785 | 450 ft | 4 kts | 184° |
| 2026-05-04 07:50 | -37.66468 | 144.84757 | 450 ft | 11 kts | 257° |
| 2026-05-04 07:50 | -37.66500 | 144.84521 | 450 ft | 19 kts | 260° |
| 2026-05-04 07:51 | -37.66514 | 144.84415 | 450 ft | 6 kts | 262° |
| 2026-05-04 07:51 | -37.66515 | 144.84404 | 450 ft | 0 kts | 262° |
| 2026-05-04 07:51 | -37.66519 | 144.84376 | 450 ft | 12 kts | 262° |
| 2026-05-04 07:51 | -37.66545 | 144.84214 | 450 ft | 11 kts | 225° |
| 2026-05-04 07:52 | -37.66613 | 144.84183 | 450 ft | 0 kts | 168° |
| 2026-05-04 07:52 | -37.66614 | 144.84183 | 450 ft | 0 kts | 168° |
| 2026-05-04 07:53 | -37.66624 | 144.84184 | 450 ft | 7 kts | 175° |
| 2026-05-04 07:54 | -37.67329 | 144.84294 | 450 ft | 3 kts | 170° |
| 2026-05-04 07:55 | -37.67383 | 144.84311 | 450 ft | 16 kts | 166° |
| 2026-05-04 07:55 | -37.67536 | 144.84342 | 451 ft | 21 kts | 172° |
| 2026-05-04 07:55 | -37.67555 | 144.84345 | 451 ft | 0 kts | 172° |
| 2026-05-04 07:57 | -37.67558 | 144.84346 | 450 ft | 4 kts | 172° |
| 2026-05-04 07:57 | -37.67672 | 144.84366 | 450 ft | 26 kts | 172° |
| 2026-05-04 07:57 | -37.67808 | 144.84252 | 450 ft | 14 kts | 256° |
| 2026-05-04 07:58 | -37.67809 | 144.84246 | 451 ft | 0 kts | 257° |
| 2026-05-04 07:59 | -37.67810 | 144.84243 | 450 ft | 3 kts | 257° |
| 2026-05-04 07:59 | -37.67817 | 144.84193 | 450 ft | 0 kts | 259° |
| 2026-05-04 08:02 | -37.67842 | 144.84007 | 450 ft | 13 kts | 324° |
| 2026-05-04 08:02 | -37.67805 | 144.83989 | 450 ft | 0 kts | 346° |
| 2026-05-04 08:03 | -37.67687 | 144.83963 | 451 ft | 50 kts | 350° |
| 2026-05-04 08:03 | -37.67340 | 144.83892 | 451 ft | 100 kts | 351° |
| 2026-05-04 08:03 | -37.66027 | 144.83629 | 506 ft | 180 kts | 351° |
| 2026-05-04 08:03 | -37.65142 | 144.83510 | 741 ft | 203 kts | 352° |
| 2026-05-04 08:04 | -37.63292 | 144.83167 | 2298 ft | 202 kts | 350° |
| 2026-05-04 08:04 | -37.62341 | 144.82985 | 2751 ft | 216 kts | 350° |
| 2026-05-04 08:04 | -37.60760 | 144.82682 | 3180 ft | 244 kts | 350° |
| 2026-05-04 08:04 | -37.58417 | 144.82594 | 4219 ft | 259 kts | 6° |
| 2026-05-04 08:05 | -37.57258 | 144.83011 | 4871 ft | 263 kts | 17° |
| 2026-05-04 08:05 | -37.55058 | 144.84334 | 6110 ft | 265 kts | 24° |
| 2026-05-04 08:05 | -37.53421 | 144.85401 | 7136 ft | 267 kts | 24° |
| 2026-05-04 08:05 | -37.51767 | 144.86472 | 8129 ft | 269 kts | 24° |
| 2026-05-04 08:06 | -37.50096 | 144.87540 | 9117 ft | 271 kts | 24° |
| 2026-05-04 08:06 | -37.48973 | 144.88250 | 9763 ft | 272 kts | 25° |
| 2026-05-04 08:06 | -37.47254 | 144.89329 | 10478 ft | 286 kts | 25° |
| 2026-05-04 08:06 | -37.45394 | 144.90490 | 10851 ft | 311 kts | 25° |
| 2026-05-04 08:08 | -37.34371 | 145.07834 | 16381 ft | 372 kts | 52° |
| 2026-05-04 08:08 | -37.32898 | 145.10521 | 17287 ft | 374 kts | 51° |
| 2026-05-04 08:10 | -37.20518 | 145.32485 | 22141 ft | 427 kts | 52° |
| 2026-05-04 08:11 | -37.18790 | 145.35520 | 22803 ft | 430 kts | 51° |
| 2026-05-04 08:11 | -37.15295 | 145.41643 | 24118 ft | 435 kts | 51° |
| 2026-05-04 08:11 | -37.12923 | 145.45773 | 24725 ft | 446 kts | 52° |
| 2026-05-04 08:12 | -37.11101 | 145.48946 | 25129 ft | 453 kts | 52° |
| 2026-05-04 08:12 | -37.09872 | 145.51088 | 25470 ft | 456 kts | 52° |
| 2026-05-04 08:12 | -37.07392 | 145.55408 | 26181 ft | 462 kts | 52° |
| 2026-05-04 08:12 | -37.06144 | 145.57583 | 26534 ft | 464 kts | 52° |
| 2026-05-04 08:13 | -37.04256 | 145.60866 | 27052 ft | 468 kts | 52° |
| 2026-05-04 08:13 | -37.03530 | 145.62128 | 27245 ft | 469 kts | 52° |
| 2026-05-04 08:13 | -37.02554 | 145.63828 | 27500 ft | 471 kts | 52° |
| 2026-05-04 08:13 | -37.00641 | 145.67152 | 27990 ft | 474 kts | 52° |
| 2026-05-04 08:14 | -36.98712 | 145.70495 | 28465 ft | 477 kts | 52° |
| 2026-05-04 08:14 | -36.96113 | 145.74990 | 29087 ft | 481 kts | 52° |
| 2026-05-04 08:14 | -36.94802 | 145.77256 | 29393 ft | 483 kts | 51° |
| 2026-05-04 08:16 | -36.81727 | 145.99678 | 30666 ft | 446 kts | 51° |
| 2026-05-04 08:16 | -36.79893 | 146.02845 | 30700 ft | 459 kts | 51° |
| 2026-05-04 08:16 | -36.77999 | 146.06109 | 30922 ft | 467 kts | 51° |
| 2026-05-04 08:17 | -36.75446 | 146.10498 | 31376 ft | 474 kts | 52° |
| 2026-05-04 08:17 | -36.73503 | 146.13830 | 31674 ft | 479 kts | 52° |
| 2026-05-04 08:17 | -36.72193 | 146.16076 | 31914 ft | 482 kts | 51° |
| 2026-05-04 08:17 | -36.70220 | 146.19452 | 32298 ft | 485 kts | 51° |
| 2026-05-04 08:19 | -36.55482 | 146.44526 | 32878 ft | 531 kts | 51° |
| 2026-05-04 08:19 | -36.52578 | 146.49446 | 32878 ft | 531 kts | 51° |
| 2026-05-04 08:20 | -36.48212 | 146.56826 | 32879 ft | 531 kts | 51° |
| 2026-05-04 08:20 | -36.44571 | 146.62967 | 32878 ft | 531 kts | 51° |
| 2026-05-04 08:21 | -36.39466 | 146.71559 | 32878 ft | 531 kts | 51° |
| 2026-05-04 08:21 | -36.35088 | 146.78909 | 32877 ft | 531 kts | 51° |
| 2026-05-04 08:22 | -36.30704 | 146.86254 | 32877 ft | 530 kts | 51° |
| 2026-05-04 08:24 | -36.13168 | 147.15476 | 32878 ft | 529 kts | 50° |
| 2026-05-04 08:24 | -36.10136 | 147.20505 | 32878 ft | 527 kts | 50° |
| 2026-05-04 08:25 | -36.05032 | 147.28946 | 32880 ft | 528 kts | 51° |
| 2026-05-04 08:25 | -36.00658 | 147.36177 | 32877 ft | 520 kts | 50° |
| 2026-05-04 08:27 | -35.85094 | 147.61743 | 32876 ft | 477 kts | 53° |
| 2026-05-04 08:28 | -35.81125 | 147.68229 | 32884 ft | 475 kts | 52° |
| 2026-05-04 08:28 | -35.77157 | 147.74709 | 32893 ft | 475 kts | 52° |
| 2026-05-04 08:29 | -35.73186 | 147.81178 | 32906 ft | 475 kts | 52° |
| 2026-05-04 08:31 | -35.55964 | 148.09130 | 32955 ft | 504 kts | 49° |
| 2026-05-04 08:33 | -35.41578 | 148.32261 | 32990 ft | 516 kts | 50° |
| 2026-05-04 08:33 | -35.39387 | 148.35763 | 32992 ft | 519 kts | 51° |
| 2026-05-04 08:35 | -35.22017 | 148.63491 | 32624 ft | 491 kts | 52° |
| 2026-05-04 08:35 | -35.19985 | 148.66722 | 31570 ft | 473 kts | 52° |
| 2026-05-04 08:35 | -35.17352 | 148.70898 | 30147 ft | 459 kts | 52° |
| 2026-05-04 08:37 | -35.06420 | 148.88188 | 30000 ft | 460 kts | 52° |
| 2026-05-04 08:37 | -35.04468 | 148.91266 | 30001 ft | 460 kts | 52° |
| 2026-05-04 08:38 | -34.99509 | 148.97999 | 29999 ft | 459 kts | 37° |
| 2026-05-04 08:38 | -34.94808 | 149.00957 | 30001 ft | 460 kts | 18° |
| 2026-05-04 08:40 | -34.72586 | 149.02929 | 30002 ft | 460 kts | 2° |
| 2026-05-04 08:40 | -34.69393 | 149.03089 | 30000 ft | 460 kts | 2° |
| 2026-05-04 08:41 | -34.62213 | 149.03754 | 30054 ft | 417 kts | 0° |
| 2026-05-04 08:41 | -34.57527 | 149.04264 | 29781 ft | 389 kts | 358° |
| 2026-05-04 08:41 | -34.53966 | 149.04493 | 28758 ft | 383 kts | 356° |
| 2026-05-04 08:42 | -34.52200 | 149.04586 | 28381 ft | 379 kts | 356° |
| 2026-05-04 08:42 | -34.48732 | 149.04767 | 27600 ft | 372 kts | 356° |
| 2026-05-04 08:42 | -34.47015 | 149.04859 | 27200 ft | 369 kts | 356° |
| 2026-05-04 08:42 | -34.44477 | 149.05051 | 26617 ft | 368 kts | 0° |
| 2026-05-04 08:43 | -34.41222 | 149.06305 | 26113 ft | 372 kts | 18° |
| 2026-05-04 08:43 | -34.39764 | 149.07408 | 25827 ft | 376 kts | 27° |
| 2026-05-04 08:43 | -34.37853 | 149.09609 | 25336 ft | 384 kts | 40° |
| 2026-05-04 08:43 | -34.36027 | 149.13390 | 24644 ft | 399 kts | 58° |
| 2026-05-04 08:44 | -34.35481 | 149.15543 | 24288 ft | 406 kts | 68° |
| 2026-05-04 08:44 | -34.35065 | 149.18944 | 23688 ft | 412 kts | 75° |
| 2026-05-04 08:46 | -34.33753 | 149.42840 | 19519 ft | 396 kts | 80° |
| 2026-05-04 08:46 | -34.33578 | 149.46153 | 18897 ft | 395 kts | 81° |
| 2026-05-04 08:46 | -34.33402 | 149.49459 | 18291 ft | 394 kts | 81° |
| 2026-05-04 08:46 | -34.33229 | 149.52742 | 17733 ft | 391 kts | 81° |
| 2026-05-04 08:47 | -34.33056 | 149.56004 | 17180 ft | 388 kts | 81° |
| 2026-05-04 08:47 | -34.32884 | 149.59239 | 16634 ft | 385 kts | 81° |
| 2026-05-04 08:47 | -34.32712 | 149.62446 | 16090 ft | 382 kts | 81° |
| 2026-05-04 08:47 | -34.32484 | 149.66683 | 15369 ft | 378 kts | 80° |
| 2026-05-04 08:48 | -34.32315 | 149.69822 | 15009 ft | 372 kts | 80° |
| 2026-05-04 08:48 | -34.32202 | 149.71895 | 14926 ft | 372 kts | 80° |
| 2026-05-04 08:48 | -34.32030 | 149.75014 | 14797 ft | 373 kts | 80° |
| 2026-05-04 08:48 | -34.32017 | 149.75245 | 14787 ft | 373 kts | 80° |
| 2026-05-04 08:49 | -34.31905 | 149.77275 | 14707 ft | 372 kts | 80° |
| 2026-05-04 08:50 | -34.30891 | 149.95557 | 13180 ft | 352 kts | 79° |
| 2026-05-04 08:50 | -34.30723 | 149.98501 | 13043 ft | 351 kts | 79° |
| 2026-05-04 08:51 | -34.30555 | 150.01429 | 13032 ft | 349 kts | 79° |
| 2026-05-04 08:51 | -34.30401 | 150.04233 | 12801 ft | 323 kts | 78° |
| 2026-05-04 08:51 | -34.30212 | 150.07707 | 12152 ft | 304 kts | 78° |
| 2026-05-04 08:51 | -34.30068 | 150.10231 | 11451 ft | 300 kts | 78° |
| 2026-05-04 08:52 | -34.29971 | 150.11890 | 10978 ft | 298 kts | 78° |
| 2026-05-04 08:52 | -34.29826 | 150.14254 | 10277 ft | 297 kts | 80° |
| 2026-05-04 08:52 | -34.29695 | 150.16470 | 10009 ft | 288 kts | 80° |
| 2026-05-04 08:52 | -34.29519 | 150.19547 | 9979 ft | 267 kts | 79° |
| 2026-05-04 08:53 | -34.29432 | 150.21023 | 9981 ft | 266 kts | 79° |
| 2026-05-04 08:54 | -34.28490 | 150.36412 | 9980 ft | 264 kts | 79° |
| 2026-05-04 08:55 | -34.28398 | 150.37885 | 9980 ft | 264 kts | 79° |
| 2026-05-04 08:55 | -34.28260 | 150.40091 | 9981 ft | 264 kts | 79° |
| 2026-05-04 08:55 | -34.28117 | 150.42302 | 9981 ft | 263 kts | 78° |
| 2026-05-04 08:55 | -34.27670 | 150.44410 | 9976 ft | 259 kts | 63° |
| 2026-05-04 08:57 | -34.24727 | 150.59522 | 7974 ft | 268 kts | 82° |
| 2026-05-04 09:01 | -34.21530 | 150.88914 | 6007 ft | 248 kts | 75° |
| 2026-05-04 09:01 | -34.21385 | 150.90123 | 5987 ft | 242 kts | 75° |
| 2026-05-04 09:01 | -34.21143 | 150.92111 | 5984 ft | 239 kts | 75° |
| 2026-05-04 09:01 | -34.20910 | 150.94036 | 5970 ft | 222 kts | 74° |
| 2026-05-04 09:02 | -34.20759 | 150.95268 | 5981 ft | 225 kts | 74° |
| 2026-05-04 09:02 | -34.20512 | 150.97212 | 5795 ft | 246 kts | 74° |
| 2026-05-04 09:02 | -34.20158 | 151.00008 | 5349 ft | 246 kts | 75° |
| 2026-05-04 09:02 | -34.19993 | 151.01346 | 5143 ft | 240 kts | 75° |
| 2026-05-04 09:03 | -34.19655 | 151.04044 | 4779 ft | 258 kts | 75° |
| 2026-05-04 09:03 | -34.19350 | 151.06379 | 4502 ft | 307 kts | 76° |
| 2026-05-04 09:03 | -34.19029 | 151.08909 | 4134 ft | 290 kts | 77° |
| 2026-05-04 09:03 | -34.18840 | 151.10464 | 3796 ft | 273 kts | 77° |
| 2026-05-04 09:04 | -34.18579 | 151.12617 | 3438 ft | 247 kts | 77° |
| 2026-05-04 09:04 | -34.18344 | 151.14562 | 3225 ft | 222 kts | 77° |
| 2026-05-04 09:04 | -34.18065 | 151.16853 | 3007 ft | 195 kts | 76° |
| 2026-05-04 09:04 | -34.17891 | 151.18247 | 2976 ft | 182 kts | 76° |
| 2026-05-04 09:05 | -34.17794 | 151.19025 | 2984 ft | 179 kts | 76° |
| 2026-05-04 09:05 | -34.17544 | 151.20989 | 2986 ft | 177 kts | 76° |
| 2026-05-04 09:05 | -34.17151 | 151.22319 | 2953 ft | 162 kts | 57° |
| 2026-05-04 09:05 | -34.16642 | 151.22942 | 2964 ft | 156 kts | 38° |
| 2026-05-04 09:06 | -34.15271 | 151.23155 | 2989 ft | 153 kts | 356° |
| 2026-05-04 09:07 | -34.08199 | 151.21125 | 2358 ft | 148 kts | 351° |
| 2026-05-04 09:08 | -34.07197 | 151.20864 | 2166 ft | 147 kts | 351° |
| 2026-05-04 09:08 | -34.06200 | 151.20604 | 1975 ft | 147 kts | 351° |
| 2026-05-04 09:08 | -34.05209 | 151.20347 | 1781 ft | 144 kts | 350° |
| 2026-05-04 09:08 | -34.04563 | 151.20179 | 1665 ft | 141 kts | 350° |
| 2026-05-04 09:09 | -34.03606 | 151.19930 | 1486 ft | 140 kts | 350° |
| 2026-05-04 09:09 | -34.02339 | 151.19601 | 1236 ft | 140 kts | 350° |
| 2026-05-04 09:09 | -34.01392 | 151.19355 | 1048 ft | 140 kts | 349° |
| 2026-05-04 09:09 | -34.00761 | 151.19191 | 927 ft | 139 kts | 349° |
| 2026-05-04 09:10 | -33.99815 | 151.18945 | 740 ft | 139 kts | 349° |
| 2026-05-04 09:10 | -33.98867 | 151.18699 | 555 ft | 140 kts | 349° |
| 2026-05-04 09:10 | -33.97602 | 151.18370 | 303 ft | 139 kts | 348° |
| 2026-05-04 09:10 | -33.96973 | 151.18206 | 179 ft | 139 kts | 348° |
| 2026-05-04 09:11 | -33.95780 | 151.17895 | 38 ft | 109 kts | 349° |
| 2026-05-04 09:11 | -33.95362 | 151.17791 | 38 ft | 82 kts | 348° |
| 2026-05-04 09:11 | -33.94937 | 151.17683 | 38 ft | 57 kts | 348° |
| 2026-05-04 09:11 | -33.94598 | 151.17577 | 38 ft | 46 kts | 335° |
| 2026-05-04 09:12 | -33.94421 | 151.17445 | 38 ft | 0 kts | 319° |
| 2026-05-04 09:12 | -33.94420 | 151.17444 | 38 ft | 2 kts | 318° |
| 2026-05-04 09:14 | -33.94335 | 151.16396 | 38 ft | 9 kts | 309° |